Norfolk — WDG2147 — position and weather

sailwx.info

Track history (hours):
 
Tides and Currents Weather Stations Pressure Air Temp Water Temp Dewpoint Dewpoint Depression Visibility Wind Speed Wind Dir Waves Ship Positions

Norfolk

Owner: Virginia Pilot Boat Corporation, Virginia Beach, VA. More information available from US FCC via Universal Licensing System and Coast Guard Vessel Documentation Center.

Last reported at 2017-Nov-19 23:53 UTC. Time now 2017-Nov-20 01:43 UTC.
Position N 36°54' W 076°05'.

Length 18 m; draft 1.5 m.

Type: Pilot. MMSI: 367512630.

Date/timePositionNaut miles runAvg speedWind from/ knotsBaromVisibWave heightAir tempDewpointWater temp
2017-Nov-19 23:53N 36°54' W 076°05'0 0.0
2017-Nov-19 20:39N 36°54' W 076°05'213.5
2017-Nov-19 20:30N 36°56' W 076°04'7 8.0
2017-Nov-19 19:38N 36°55' W 075°55'522.6
2017-Nov-19 19:26N 36°56' W 076°01'2 0.4
2017-Nov-19 13:36N 36°56' W 076°03'6 2.0
2017-Nov-19 10:27N 36°55' W 075°55'8 3.9
2017-Nov-19 08:23N 36°54' W 076°05'1 1.6
2017-Nov-19 07:30N 36°56' W 076°04'7 9.1
2017-Nov-19 06:44N 36°56' W 075°56'822.1
2017-Nov-19 06:23N 36°55' W 076°05'1 2.3
2017-Nov-19 05:58N 36°54' W 076°05'0 0.0
2017-Nov-19 05:26N 36°54' W 076°05'0 0.0
2017-Nov-19 04:50N 36°54' W 076°05'0 0.0
2017-Nov-19 04:26N 36°54' W 076°05'2 0.3
2017-Nov-18 21:10N 36°56' W 076°05'2 4.0
2017-Nov-18 20:41N 36°54' W 076°05'1 0.8
2017-Nov-18 19:30N 36°55' W 076°05'1 0.2
2017-Nov-18 13:42N 36°54' W 076°05'520.6
2017-Nov-18 13:28N 36°57' W 076°00'4 8.5
2017-Nov-18 13:00N 36°56' W 075°56'8 6.8
2017-Nov-18 11:50N 36°54' W 076°05'0 0.0
2017-Nov-18 08:20N 36°54' W 076°05'919.3
2017-Nov-18 07:53N 36°55' W 075°55'820.9
2017-Nov-18 07:30N 36°55' W 076°05'1 0.7
2017-Nov-18 05:44N 36°54' W 076°06'2 2.3
2017-Nov-18 04:56N 36°56' W 076°04'2 0.3
2017-Nov-17 22:24N 36°54' W 076°05'2 0.9
2017-Nov-17 20:13N 36°56' W 076°05'2 8.0
2017-Nov-17 19:59N 36°54' W 076°05'0 0.0
2017-Nov-17 19:30N 36°54' W 076°05'813.6
2017-Nov-17 18:54N 36°56' W 075°55'819.4
2017-Nov-17 18:30N 36°55' W 076°05'1 2.4
2017-Nov-17 18:00N 36°54' W 076°05'0 0.0
2017-Nov-17 17:30N 36°54' W 076°05'0 0.0
2017-Nov-17 17:00N 36°54' W 076°05'0 0.0
2017-Nov-17 16:30N 36°54' W 076°05'0 0.0
2017-Nov-17 16:00N 36°54' W 076°05'0 0.0
2017-Nov-17 15:31N 36°54' W 076°05'0 0.0
2017-Nov-17 15:00N 36°54' W 076°05'5 8.2
2017-Nov-17 14:25N 36°57' W 076°01'510.2
2017-Nov-17 13:57N 36°54' W 076°05'0 0.1
2017-Nov-17 13:31N 36°54' W 076°05'812.1
2017-Nov-17 12:53N 36°56' W 075°56'616.3
2017-Nov-17 12:31N 36°56' W 076°04'2 3.7
2017-Nov-17 12:00N 36°54' W 076°05'1 0.3
2017-Nov-17 08:23N 36°55' W 076°05'816.6
2017-Nov-17 07:54N 36°55' W 075°55'5 0.7
2017-Nov-17 01:01N 36°57' W 076°01'0 9.7
2017-Nov-17 01:01N 36°57' W 076°01'3 4.5
2017-Nov-17 00:17N 36°56' W 076°04'0 0.2
2017-Nov-16 22:06N 36°55' W 076°05'1 5.0
2017-Nov-16 21:54N 36°54' W 076°05'816.1
2017-Nov-16 21:25N 36°56' W 075°56'613.4
2017-Nov-16 20:57N 36°56' W 076°04'2 0.5
2017-Nov-16 17:27N 36°54' W 076°05'0 0.0
2017-Nov-16 15:38N 36°54' W 076°05'0 0.0
2017-Nov-16 14:09N 36°54' W 076°05'0 0.1
2017-Nov-16 14:00N 36°54' W 076°05'0 0.0
2017-Nov-16 13:13N 36°54' W 076°05'0 0.1
2017-Nov-16 13:00N 36°54' W 076°05'0 0.0
2017-Nov-16 12:30N 36°54' W 076°05'0 0.1
2017-Nov-16 12:00N 36°54' W 076°05'0 0.0
2017-Nov-16 07:42N 36°54' W 076°05'2 1.3
2017-Nov-16 06:09N 36°56' W 076°05'1 0.7
2017-Nov-16 04:33N 36°55' W 076°05'12 1.2
2017-Nov-15 18:55N 36°52' W 076°20'2 5.8
2017-Nov-15 18:30N 36°51' W 076°18'1 1.3
2017-Nov-15 18:00N 36°50' W 076°17'1 1.4
2017-Nov-15 17:30N 36°51' W 076°18'0 0.0
2017-Nov-15 16:59N 36°51' W 076°18'0 0.0
2017-Nov-15 16:30N 36°51' W 076°18'0 0.2
2017-Nov-15 16:01N 36°51' W 076°17'0 0.2
2017-Nov-15 15:30N 36°51' W 076°18'0 0.0
2017-Nov-15 15:00N 36°51' W 076°18'0 0.0
2017-Nov-15 14:30N 36°51' W 076°18'0 0.0
2017-Nov-15 14:00N 36°51' W 076°18'0 0.0
2017-Nov-15 13:30N 36°51' W 076°18'0 0.0
2017-Nov-15 13:00N 36°51' W 076°18'0 0.0
2017-Nov-15 12:30N 36°51' W 076°18'0 0.1
2017-Nov-15 12:00N 36°51' W 076°18'10 1.3
2017-Nov-15 04:17N 36°54' W 076°05'1 1.1
2017-Nov-15 03:22N 36°55' W 076°05'1 0.2
2017-Nov-14 21:54N 36°54' W 076°05'0 0.0
2017-Nov-14 21:30N 36°54' W 076°05'0 0.0
2017-Nov-14 21:00N 36°54' W 076°05'12 9.6
2017-Nov-14 19:47N 36°53' W 076°20'3 9.7
2017-Nov-14 19:30N 36°51' W 076°18'1 2.2
2017-Nov-14 19:01N 36°50' W 076°16'1 1.9
2017-Nov-14 18:30N 36°51' W 076°18'0 0.0
2017-Nov-14 18:00N 36°51' W 076°18'0 0.5
2017-Nov-14 17:30N 36°50' W 076°18'4 7.3
2017-Nov-14 17:01N 36°47' W 076°18'4 7.7
2017-Nov-14 16:30N 36°51' W 076°18'0 0.0
2017-Nov-14 16:00N 36°51' W 076°18'0 0.0
2017-Nov-14 15:30N 36°51' W 076°18'2 4.9
2017-Nov-14 15:00N 36°48' W 076°17'0 0.5
2017-Nov-14 14:30N 36°48' W 076°18'3 4.9
2017-Nov-14 13:59N 36°50' W 076°17'1 1.6
2017-Nov-14 13:30N 36°51' W 076°18'0 0.0
2017-Nov-14 13:00N 36°51' W 076°18'0 0.0
2017-Nov-14 12:30N 36°51' W 076°18'10 0.7
2017-Nov-13 22:01N 36°54' W 076°06'0 0.0
2017-Nov-13 01:59N 36°54' W 076°05'0 0.0
2017-Nov-12 21:56N 36°54' W 076°05'0 0.0
2017-Nov-12 21:30N 36°54' W 076°05'0 0.0
2017-Nov-12 21:00N 36°54' W 076°05'0 0.0
2017-Nov-12 20:30N 36°54' W 076°05'0 0.0
2017-Nov-12 20:00N 36°54' W 076°05'0 0.0
2017-Nov-12 19:30N 36°54' W 076°05'0 0.0
2017-Nov-12 19:00N 36°54' W 076°05'0 0.0
2017-Nov-12 18:30N 36°54' W 076°05'0 0.0
2017-Nov-12 18:00N 36°54' W 076°05'0 0.0
2017-Nov-12 17:30N 36°54' W 076°05'0 0.0
2017-Nov-12 17:00N 36°54' W 076°05'0 0.0
2017-Nov-12 16:30N 36°54' W 076°05'0 0.0
2017-Nov-12 16:00N 36°54' W 076°05'0 0.0
2017-Nov-12 15:30N 36°54' W 076°05'0 0.0
2017-Nov-12 14:41N 36°54' W 076°05'0 0.0
2017-Nov-12 14:28N 36°54' W 076°05'714.9
2017-Nov-12 14:00N 36°55' W 075°57'714.5
2017-Nov-12 13:31N 36°54' W 076°05'1 0.3
2017-Nov-12 09:26N 36°56' W 076°05'613.9
2017-Nov-12 08:58N 36°56' W 075°57'712.5
2017-Nov-12 08:24N 36°54' W 076°05'2 0.6
2017-Nov-12 04:47N 36°56' W 076°05'1 0.2
2017-Nov-11 23:01N 36°55' W 076°05'022.9
2017-Nov-11 23:00N 36°55' W 076°05'1 1.0
2017-Nov-11 21:56N 36°54' W 076°05'0 0.0
2017-Nov-11 20:34N 36°54' W 076°05'0 0.0
2017-Nov-11 20:26N 36°54' W 076°05'2 5.8
2017-Nov-11 20:00N 36°56' W 076°04'2 4.3
2017-Nov-11 19:29N 36°57' W 076°01'5 9.5
2017-Nov-11 19:00N 36°55' W 075°56'612.6
2017-Nov-11 18:30N 36°56' W 076°03'2 4.6
2017-Nov-11 18:00N 36°54' W 076°05'4 5.6
2017-Nov-11 17:17N 36°56' W 076°01'413.5
2017-Nov-11 16:59N 36°54' W 076°05'2 3.6
2017-Nov-11 16:30N 36°56' W 076°04'2 3.3
2017-Nov-11 16:00N 36°55' W 076°05'0 0.4
2017-Nov-11 15:30N 36°54' W 076°05'0 0.1
2017-Nov-11 14:51N 36°54' W 076°05'616.3
2017-Nov-11 14:30N 36°56' W 075°58'3 5.8
2017-Nov-11 13:59N 36°56' W 076°02'3 6.3
2017-Nov-11 13:29N 36°54' W 076°05'0 0.0
2017-Nov-11 12:49N 36°54' W 076°05'0 0.0
2017-Nov-11 12:30N 36°54' W 076°05'0 0.0
2017-Nov-11 12:00N 36°54' W 076°05'0 0.0
2017-Nov-11 11:18N 36°54' W 076°05'413.6
2017-Nov-11 10:58N 36°57' W 076°01'4 3.6
2017-Nov-11 09:43N 36°54' W 076°05'0 0.1
2017-Nov-11 09:19N 36°54' W 076°05'3 5.4
2017-Nov-11 08:41N 36°56' W 076°02'3 2.6
2017-Nov-11 07:22N 36°54' W 076°05'821.4
2017-Nov-11 06:59N 37°02' W 076°06'3 2.0
2017-Nov-11 05:19N 36°59' W 076°05'5 3.8
2017-Nov-11 03:59N 36°54' W 076°05'815.8
2017-Nov-11 03:30N 36°56' W 075°56'713.4
2017-Nov-11 02:59N 36°56' W 076°05'1 0.3
2017-Nov-10 22:18N 36°54' W 076°05'3 0.5
2017-Nov-10 16:04N 36°58' W 076°05'110.6
2017-Nov-10 16:00N 36°57' W 076°05'3 4.4
2017-Nov-10 15:25N 36°54' W 076°05'0 0.0
2017-Nov-10 14:56N 36°54' W 076°05'0 0.1
2017-Nov-10 14:23N 36°54' W 076°05'2 1.1
2017-Nov-10 12:15N 36°57' W 076°05'2 0.8
2017-Nov-10 09:21N 36°54' W 076°05'5 3.2
2017-Nov-10 07:48N 36°59' W 076°05'512.8
2017-Nov-10 07:25N 36°54' W 076°05'717.1
2017-Nov-10 07:00N 36°56' W 075°57'  
Track history (hours):
 
Tides and Currents Weather Stations Pressure Air Temp Water Temp Dewpoint Dewpoint Depression Visibility Wind Speed Wind Dir Waves Ship Positions

Norfolk

Owner: Virginia Pilot Boat Corporation, Virginia Beach, VA. More information available from US FCC via Universal Licensing System and Coast Guard Vessel Documentation Center.

Last reported at 2017-Nov-19 23:53 UTC. Time now 2017-Nov-20 01:43 UTC.
Position N 36°54' W 076°05'.

Length 18 m; draft 1.5 m.

Type: Pilot. MMSI: 367512630.

Date/timePositionNaut miles runAvg speedWind from/ knotsBaromVisibWave heightAir tempDewpointWater temp
2017-Nov-19 23:53N 36°54' W 076°05'0 0.0
2017-Nov-19 20:39N 36°54' W 076°05'213.5
2017-Nov-19 20:30N 36°56' W 076°04'7 8.0
2017-Nov-19 19:38N 36°55' W 075°55'522.6
2017-Nov-19 19:26N 36°56' W 076°01'2 0.4
2017-Nov-19 13:36N 36°56' W 076°03'6 2.0
2017-Nov-19 10:27N 36°55' W 075°55'8 3.9
2017-Nov-19 08:23N 36°54' W 076°05'1 1.6
2017-Nov-19 07:30N 36°56' W 076°04'7 9.1
2017-Nov-19 06:44N 36°56' W 075°56'822.1
2017-Nov-19 06:23N 36°55' W 076°05'1 2.3
2017-Nov-19 05:58N 36°54' W 076°05'0 0.0
2017-Nov-19 05:26N 36°54' W 076°05'0 0.0
2017-Nov-19 04:50N 36°54' W 076°05'0 0.0
2017-Nov-19 04:26N 36°54' W 076°05'2 0.3
2017-Nov-18 21:10N 36°56' W 076°05'2 4.0
2017-Nov-18 20:41N 36°54' W 076°05'1 0.8
2017-Nov-18 19:30N 36°55' W 076°05'1 0.2
2017-Nov-18 13:42N 36°54' W 076°05'520.6
2017-Nov-18 13:28N 36°57' W 076°00'4 8.5
2017-Nov-18 13:00N 36°56' W 075°56'8 6.8
2017-Nov-18 11:50N 36°54' W 076°05'0 0.0
2017-Nov-18 08:20N 36°54' W 076°05'919.3
2017-Nov-18 07:53N 36°55' W 075°55'820.9
2017-Nov-18 07:30N 36°55' W 076°05'1 0.7
2017-Nov-18 05:44N 36°54' W 076°06'2 2.3
2017-Nov-18 04:56N 36°56' W 076°04'2 0.3
2017-Nov-17 22:24N 36°54' W 076°05'2 0.9
2017-Nov-17 20:13N 36°56' W 076°05'2 8.0
2017-Nov-17 19:59N 36°54' W 076°05'0 0.0
2017-Nov-17 19:30N 36°54' W 076°05'813.6
2017-Nov-17 18:54N 36°56' W 075°55'819.4
2017-Nov-17 18:30N 36°55' W 076°05'1 2.4
2017-Nov-17 18:00N 36°54' W 076°05'0 0.0
2017-Nov-17 17:30N 36°54' W 076°05'0 0.0
2017-Nov-17 17:00N 36°54' W 076°05'0 0.0
2017-Nov-17 16:30N 36°54' W 076°05'0 0.0
2017-Nov-17 16:00N 36°54' W 076°05'0 0.0
2017-Nov-17 15:31N 36°54' W 076°05'0 0.0
2017-Nov-17 15:00N 36°54' W 076°05'5 8.2
2017-Nov-17 14:25N 36°57' W 076°01'510.2
2017-Nov-17 13:57N 36°54' W 076°05'0 0.1
2017-Nov-17 13:31N 36°54' W 076°05'812.1
2017-Nov-17 12:53N 36°56' W 075°56'616.3
2017-Nov-17 12:31N 36°56' W 076°04'2 3.7
2017-Nov-17 12:00N 36°54' W 076°05'1 0.3
2017-Nov-17 08:23N 36°55' W 076°05'816.6
2017-Nov-17 07:54N 36°55' W 075°55'5 0.7
2017-Nov-17 01:01N 36°57' W 076°01'0 9.7
2017-Nov-17 01:01N 36°57' W 076°01'3 4.5
2017-Nov-17 00:17N 36°56' W 076°04'0 0.2
2017-Nov-16 22:06N 36°55' W 076°05'1 5.0
2017-Nov-16 21:54N 36°54' W 076°05'816.1
2017-Nov-16 21:25N 36°56' W 075°56'613.4
2017-Nov-16 20:57N 36°56' W 076°04'2 0.5
2017-Nov-16 17:27N 36°54' W 076°05'0 0.0
2017-Nov-16 15:38N 36°54' W 076°05'0 0.0
2017-Nov-16 14:09N 36°54' W 076°05'0 0.1
2017-Nov-16 14:00N 36°54' W 076°05'0 0.0
2017-Nov-16 13:13N 36°54' W 076°05'0 0.1
2017-Nov-16 13:00N 36°54' W 076°05'0 0.0
2017-Nov-16 12:30N 36°54' W 076°05'0 0.1
2017-Nov-16 12:00N 36°54' W 076°05'0 0.0
2017-Nov-16 07:42N 36°54' W 076°05'2 1.3
2017-Nov-16 06:09N 36°56' W 076°05'1 0.7
2017-Nov-16 04:33N 36°55' W 076°05'12 1.2
2017-Nov-15 18:55N 36°52' W 076°20'2 5.8
2017-Nov-15 18:30N 36°51' W 076°18'1 1.3
2017-Nov-15 18:00N 36°50' W 076°17'1 1.4
2017-Nov-15 17:30N 36°51' W 076°18'0 0.0
2017-Nov-15 16:59N 36°51' W 076°18'0 0.0
2017-Nov-15 16:30N 36°51' W 076°18'0 0.2
2017-Nov-15 16:01N 36°51' W 076°17'0 0.2
2017-Nov-15 15:30N 36°51' W 076°18'0 0.0
2017-Nov-15 15:00N 36°51' W 076°18'0 0.0
2017-Nov-15 14:30N 36°51' W 076°18'0 0.0
2017-Nov-15 14:00N 36°51' W 076°18'0 0.0
2017-Nov-15 13:30N 36°51' W 076°18'0 0.0
2017-Nov-15 13:00N 36°51' W 076°18'0 0.0
2017-Nov-15 12:30N 36°51' W 076°18'0 0.1
2017-Nov-15 12:00N 36°51' W 076°18'10 1.3
2017-Nov-15 04:17N 36°54' W 076°05'1 1.1
2017-Nov-15 03:22N 36°55' W 076°05'1 0.2
2017-Nov-14 21:54N 36°54' W 076°05'0 0.0
2017-Nov-14 21:30N 36°54' W 076°05'0 0.0
2017-Nov-14 21:00N 36°54' W 076°05'12 9.6
2017-Nov-14 19:47N 36°53' W 076°20'3 9.7
2017-Nov-14 19:30N 36°51' W 076°18'1 2.2
2017-Nov-14 19:01N 36°50' W 076°16'1 1.9
2017-Nov-14 18:30N 36°51' W 076°18'0 0.0
2017-Nov-14 18:00N 36°51' W 076°18'0 0.5
2017-Nov-14 17:30N 36°50' W 076°18'4 7.3
2017-Nov-14 17:01N 36°47' W 076°18'4 7.7
2017-Nov-14 16:30N 36°51' W 076°18'0 0.0
2017-Nov-14 16:00N 36°51' W 076°18'0 0.0
2017-Nov-14 15:30N 36°51' W 076°18'2 4.9
2017-Nov-14 15:00N 36°48' W 076°17'0 0.5
2017-Nov-14 14:30N 36°48' W 076°18'3 4.9
2017-Nov-14 13:59N 36°50' W 076°17'1 1.6
2017-Nov-14 13:30N 36°51' W 076°18'0 0.0
2017-Nov-14 13:00N 36°51' W 076°18'0 0.0
2017-Nov-14 12:30N 36°51' W 076°18'10 0.7
2017-Nov-13 22:01N 36°54' W 076°06'0 0.0
2017-Nov-13 01:59N 36°54' W 076°05'0 0.0
2017-Nov-12 21:56N 36°54' W 076°05'0 0.0
2017-Nov-12 21:30N 36°54' W 076°05'0 0.0
2017-Nov-12 21:00N 36°54' W 076°05'0 0.0
2017-Nov-12 20:30N 36°54' W 076°05'0 0.0
2017-Nov-12 20:00N 36°54' W 076°05'0 0.0
2017-Nov-12 19:30N 36°54' W 076°05'0 0.0
2017-Nov-12 19:00N 36°54' W 076°05'0 0.0
2017-Nov-12 18:30N 36°54' W 076°05'0 0.0
2017-Nov-12 18:00N 36°54' W 076°05'0 0.0
2017-Nov-12 17:30N 36°54' W 076°05'0 0.0
2017-Nov-12 17:00N 36°54' W 076°05'0 0.0
2017-Nov-12 16:30N 36°54' W 076°05'0 0.0
2017-Nov-12 16:00N 36°54' W 076°05'0 0.0
2017-Nov-12 15:30N 36°54' W 076°05'0 0.0
2017-Nov-12 14:41N 36°54' W 076°05'0 0.0
2017-Nov-12 14:28N 36°54' W 076°05'714.9
2017-Nov-12 14:00N 36°55' W 075°57'714.5
2017-Nov-12 13:31N 36°54' W 076°05'1 0.3
2017-Nov-12 09:26N 36°56' W 076°05'613.9
2017-Nov-12 08:58N 36°56' W 075°57'712.5
2017-Nov-12 08:24N 36°54' W 076°05'2 0.6
2017-Nov-12 04:47N 36°56' W 076°05'1 0.2
2017-Nov-11 23:01N 36°55' W 076°05'022.9
2017-Nov-11 23:00N 36°55' W 076°05'1 1.0
2017-Nov-11 21:56N 36°54' W 076°05'0 0.0
2017-Nov-11 20:34N 36°54' W 076°05'0 0.0
2017-Nov-11 20:26N 36°54' W 076°05'2 5.8
2017-Nov-11 20:00N 36°56' W 076°04'2 4.3
2017-Nov-11 19:29N 36°57' W 076°01'5 9.5
2017-Nov-11 19:00N 36°55' W 075°56'612.6
2017-Nov-11 18:30N 36°56' W 076°03'2 4.6
2017-Nov-11 18:00N 36°54' W 076°05'4 5.6
2017-Nov-11 17:17N 36°56' W 076°01'413.5
2017-Nov-11 16:59N 36°54' W 076°05'2 3.6
2017-Nov-11 16:30N 36°56' W 076°04'2 3.3
2017-Nov-11 16:00N 36°55' W 076°05'0 0.4
2017-Nov-11 15:30N 36°54' W 076°05'0 0.1
2017-Nov-11 14:51N 36°54' W 076°05'616.3
2017-Nov-11 14:30N 36°56' W 075°58'3 5.8
2017-Nov-11 13:59N 36°56' W 076°02'3 6.3
2017-Nov-11 13:29N 36°54' W 076°05'0 0.0
2017-Nov-11 12:49N 36°54' W 076°05'0 0.0
2017-Nov-11 12:30N 36°54' W 076°05'0 0.0
2017-Nov-11 12:00N 36°54' W 076°05'0 0.0
2017-Nov-11 11:18N 36°54' W 076°05'413.6
2017-Nov-11 10:58N 36°57' W 076°01'4 3.6
2017-Nov-11 09:43N 36°54' W 076°05'0 0.1
2017-Nov-11 09:19N 36°54' W 076°05'3 5.4
2017-Nov-11 08:41N 36°56' W 076°02'3 2.6
2017-Nov-11 07:22N 36°54' W 076°05'821.4
2017-Nov-11 06:59N 37°02' W 076°06'3 2.0
2017-Nov-11 05:19N 36°59' W 076°05'5 3.8
2017-Nov-11 03:59N 36°54' W 076°05'815.8
2017-Nov-11 03:30N 36°56' W 075°56'713.4
2017-Nov-11 02:59N 36°56' W 076°05'1 0.3
2017-Nov-10 22:18N 36°54' W 076°05'3 0.5
2017-Nov-10 16:04N 36°58' W 076°05'110.6
2017-Nov-10 16:00N 36°57' W 076°05'3 4.4
2017-Nov-10 15:25N 36°54' W 076°05'0 0.0
2017-Nov-10 14:56N 36°54' W 076°05'0 0.1
2017-Nov-10 14:23N 36°54' W 076°05'2 1.1
2017-Nov-10 12:15N 36°57' W 076°05'2 0.8
2017-Nov-10 09:21N 36°54' W 076°05'5 3.2
2017-Nov-10 07:48N 36°59' W 076°05'512.8
2017-Nov-10 07:25N 36°54' W 076°05'717.1
2017-Nov-10 07:00N 36°56' W 075°57'  

Dump ship's entire track history